Time;durP1;ratioP1;P1;durP2;ratioP2;P2;SDS_P1;SDS_P2;PMS_P1;PMS_P2;Temp;Humidity;BMP_temperature;BMP_pressure;BME280_temperature;BME280_humidity;BME280_pressure;Samples;Min_cycle;Max_cycle;Signal;HPM_P1;HPM_P2
2023/05/12 00:01:24;;;;;;;15.07;13.33;;;14.70;99.90;;;;;;5058282;28;20197;-77
2023/05/12 00:03:52;;;;;;;18.60;14.23;;;14.60;99.90;;;;;;5021123;28;21071;-76
2023/05/12 00:06:18;;;;;;;16.77;14.40;;;14.60;99.90;;;;;;5046290;28;20424;-77
2023/05/12 00:08:44;;;;;;;19.17;17.17;;;14.60;99.90;;;;;;5047897;28;20526;-76
2023/05/12 00:11:10;;;;;;;18.83;16.83;;;14.60;99.90;;;;;;5051008;28;20606;-77
2023/05/12 00:13:36;;;;;;;18.70;16.70;;;14.60;99.90;;;;;;5057506;28;20181;-77
2023/05/12 00:16:02;;;;;;;20.63;16.87;;;14.60;99.90;;;;;;5050814;28;20193;-77
2023/05/12 00:18:28;;;;;;;19.97;17.30;;;14.60;99.90;;;;;;5052494;28;20990;-76
2023/05/12 00:20:55;;;;;;;20.20;16.67;;;14.60;99.90;;;;;;5049283;28;20475;-76
2023/05/12 00:23:21;;;;;;;19.97;16.53;;;14.60;99.90;;;;;;5041831;28;20181;-76
2023/05/12 00:25:47;;;;;;;20.20;16.20;;;14.50;99.90;;;;;;5040743;28;20413;-76
2023/05/12 00:28:13;;;;;;;18.07;15.93;;;14.50;99.90;;;;;;5045070;28;20424;-77
2023/05/12 00:30:39;;;;;;;17.83;15.20;;;14.60;99.90;;;;;;5055595;28;20435;-76
2023/05/12 00:33:05;;;;;;;17.57;14.40;;;14.50;99.90;;;;;;5043554;28;20786;-76
2023/05/12 00:35:31;;;;;;;18.80;15.97;;;14.50;99.90;;;;;;5044031;28;20228;-77
2023/05/12 00:37:56;;;;;;;17.50;15.60;;;14.50;99.90;;;;;;5049078;28;20420;-77
2023/05/12 00:40:22;;;;;;;17.27;14.70;;;14.50;99.90;;;;;;5048003;28;20756;-76
2023/05/12 00:42:48;;;;;;;14.70;13.10;;;14.50;99.90;;;;;;5047436;28;20341;-77
2023/05/12 00:45:14;;;;;;;17.20;13.83;;;14.60;99.90;;;;;;5049376;28;20185;-77
2023/05/12 00:47:40;;;;;;;15.80;13.20;;;14.60;99.90;;;;;;5047628;28;20416;-77
2023/05/12 00:50:07;;;;;;;12.90;11.37;;;14.60;99.90;;;;;;5049016;28;20638;-76
2023/05/12 00:52:33;;;;;;;14.77;11.90;;;14.60;99.90;;;;;;5049024;28;20420;-77
2023/05/12 00:55:00;;;;;;;12.90;11.17;;;14.60;99.90;;;;;;5047745;28;20434;-77
2023/05/12 00:57:28;;;;;;;11.50;10.40;;;14.50;99.90;;;;;;5048691;28;21098;-76
2023/05/12 00:59:54;;;;;;;11.30;9.90;;;14.50;99.90;;;;;;5048891;28;20423;-77
2023/05/12 01:02:21;;;;;;;12.63;10.30;;;14.60;99.90;;;;;;5046961;28;20872;-77
2023/05/12 01:04:48;;;;;;;11.07;9.90;;;14.50;99.90;;;;;;5030387;28;20205;-76
2023/05/12 01:07:24;;;;;;;9.40;8.40;;;14.50;99.90;;;;;;5048789;28;20420;-76
2023/05/12 01:09:55;;;;;;;9.43;8.47;;;14.50;99.90;;;;;;5048526;28;20420;-77
2023/05/12 01:12:21;;;;;;;8.90;8.00;;;14.50;99.90;;;;;;5048627;28;20535;-76
2023/05/12 01:14:48;;;;;;;9.33;8.33;;;14.50;99.90;;;;;;5049094;28;20412;-76
2023/05/12 01:17:18;;;;;;;8.77;7.10;;;14.50;99.90;;;;;;5031147;28;20795;-76
2023/05/12 01:19:50;;;;;;;5.43;4.93;;;14.50;99.90;;;;;;5048019;28;20413;-76
2023/05/12 01:22:17;;;;;;;5.20;4.70;;;14.40;99.90;;;;;;5030377;28;20818;-76
2023/05/12 01:24:50;;;;;;;4.50;4.10;;;14.40;99.90;;;;;;5048584;28;20451;-76
2023/05/12 01:27:16;;;;;;;7.47;4.27;;;14.30;99.90;;;;;;5048655;28;20416;-76
2023/05/12 01:29:45;;;;;;;4.00;3.50;;;14.40;99.90;;;;;;5048503;28;20420;-76
2023/05/12 01:32:12;;;;;;;3.63;3.33;;;14.30;99.90;;;;;;5048472;28;20493;-76
2023/05/12 01:34:37;;;;;;;3.67;2.87;;;14.30;99.90;;;;;;5048706;28;20900;-76
2023/05/12 01:37:03;;;;;;;2.90;2.70;;;14.30;99.90;;;;;;5047250;28;20469;-76
2023/05/12 01:39:29;;;;;;;3.23;2.93;;;14.30;99.90;;;;;;5048372;28;20196;-76
2023/05/12 01:41:55;;;;;;;3.43;3.13;;;14.20;99.90;;;;;;5048717;28;20224;-76
2023/05/12 01:44:21;;;;;;;4.53;4.13;;;14.30;99.90;;;;;;5048429;28;20165;-76
2023/05/12 01:46:48;;;;;;;3.80;3.50;;;14.30;99.90;;;;;;5048448;28;20919;-76
2023/05/12 01:49:13;;;;;;;3.80;3.50;;;14.30;99.90;;;;;;5048259;28;20466;-76
2023/05/12 01:51:39;;;;;;;5.60;4.23;;;14.30;99.90;;;;;;5048305;28;20432;-76
2023/05/12 01:54:05;;;;;;;4.90;3.67;;;14.30;99.90;;;;;;5046913;28;20166;-76
2023/05/12 01:56:31;;;;;;;4.00;3.60;;;14.30;99.90;;;;;;5047242;28;20575;-76
2023/05/12 01:58:56;;;;;;;4.40;4.00;;;14.30;99.90;;;;;;5048141;28;20203;-76
2023/05/12 02:01:24;;;;;;;3.80;3.50;;;14.30;99.90;;;;;;5048525;28;20197;-76
2023/05/12 02:03:50;;;;;;;3.90;3.30;;;14.20;99.90;;;;;;5048098;28;20174;-76
2023/05/12 02:06:15;;;;;;;5.60;3.53;;;14.20;99.90;;;;;;5048615;28;20477;-76
2023/05/12 02:08:41;;;;;;;4.10;3.47;;;14.20;99.90;;;;;;5030456;28;20274;-76
2023/05/12 02:11:08;;;;;;;3.97;3.60;;;14.20;99.90;;;;;;5046815;28;20213;-76
2023/05/12 02:13:34;;;;;;;4.40;3.03;;;14.20;99.90;;;;;;5048431;28;20185;-76
2023/05/12 02:16:00;;;;;;;6.00;3.20;;;14.10;99.90;;;;;;5052287;28;20750;-76
2023/05/12 02:18:26;;;;;;;3.57;3.23;;;14.10;99.90;;;;;;5052067;28;20547;-76
2023/05/12 02:20:52;;;;;;;3.30;2.60;;;14.20;99.90;;;;;;5052018;28;20514;-76
2023/05/12 02:23:18;;;;;;;2.80;2.60;;;14.20;99.90;;;;;;5049732;28;20174;-77
2023/05/12 02:25:44;;;;;;;3.97;3.07;;;14.20;99.90;;;;;;5051041;28;20412;-76
2023/05/12 02:28:10;;;;;;;3.40;3.10;;;14.20;99.90;;;;;;5051887;28;20213;-76
2023/05/12 02:30:36;;;;;;;3.00;2.47;;;14.20;99.90;;;;;;5051771;28;20264;-76
2023/05/12 02:33:05;;;;;;;3.33;3.03;;;14.20;99.90;;;;;;5051863;28;20416;-76
2023/05/12 02:35:31;;;;;;;3.17;2.87;;;14.20;99.90;;;;;;5050636;28;20423;-76
2023/05/12 02:37:57;;;;;;;2.70;2.50;;;14.20;99.90;;;;;;5051572;28;20463;-76
2023/05/12 02:40:22;;;;;;;3.50;2.63;;;14.20;99.90;;;;;;5050459;28;20574;-76
2023/05/12 02:42:48;;;;;;;4.00;2.90;;;14.20;99.90;;;;;;5050374;28;20198;-76
2023/05/12 02:45:14;;;;;;;5.30;3.00;;;14.20;99.90;;;;;;5051492;28;20718;-76
2023/05/12 02:47:40;;;;;;;3.63;3.30;;;14.20;99.90;;;;;;5050180;28;20174;-76
2023/05/12 02:50:06;;;;;;;2.67;2.47;;;14.20;99.90;;;;;;5051310;28;20213;-76
2023/05/12 02:52:32;;;;;;;6.00;3.23;;;14.20;99.90;;;;;;5054039;28;20737;-77
2023/05/12 02:54:57;;;;;;;3.27;2.97;;;14.10;99.90;;;;;;5053792;28;20504;-77
2023/05/12 02:57:25;;;;;;;3.10;2.70;;;14.10;99.90;;;;;;5053147;28;20213;-76
2023/05/12 02:59:51;;;;;;;3.53;2.77;;;14.20;99.90;;;;;;5053305;28;20532;-76
2023/05/12 03:02:17;;;;;;;4.20;2.60;;;14.20;99.90;;;;;;5051819;28;20431;-76
2023/05/12 03:04:42;;;;;;;3.27;2.97;;;14.10;99.90;;;;;;5052690;28;20257;-78
2023/05/12 03:07:08;;;;;;;2.73;2.53;;;14.20;99.90;;;;;;5053359;28;20182;-77
2023/05/12 03:09:34;;;;;;;2.70;2.50;;;14.20;99.90;;;;;;5053120;28;20205;-76
2023/05/12 03:12:00;;;;;;;3.37;2.53;;;14.20;99.90;;;;;;5051838;28;20214;-78
2023/05/12 03:14:27;;;;;;;2.70;2.13;;;14.10;99.90;;;;;;5050885;28;20220;-76
2023/05/12 03:16:53;;;;;;;3.70;2.33;;;14.10;99.90;;;;;;5032752;28;20185;-76
2023/05/12 03:19:18;;;;;;;4.13;3.27;;;14.00;99.90;;;;;;5034488;28;20470;-76
2023/05/12 03:21:44;;;;;;;4.57;3.63;;;14.00;99.90;;;;;;5051484;28;20645;-76
2023/05/12 03:24:10;;;;;;;4.07;3.77;;;14.00;99.90;;;;;;5050506;28;20170;-78
2023/05/12 03:26:35;;;;;;;3.90;3.60;;;13.90;99.90;;;;;;5050906;28;20676;-77
2023/05/12 03:29:02;;;;;;;3.87;3.47;;;13.90;99.90;;;;;;5051496;28;20188;-77
2023/05/12 03:31:27;;;;;;;4.93;4.10;;;13.90;99.90;;;;;;5050930;28;20201;-77
2023/05/12 03:33:53;;;;;;;3.70;3.30;;;13.90;99.90;;;;;;5051850;28;20420;-77
2023/05/12 03:36:19;;;;;;;4.27;3.73;;;13.90;99.90;;;;;;5051226;28;20193;-76
2023/05/12 03:38:44;;;;;;;4.27;3.87;;;14.00;99.90;;;;;;5051907;28;20784;-77
2023/05/12 03:41:10;;;;;;;5.17;4.00;;;13.90;99.90;;;;;;5052314;28;20397;-76
2023/05/12 03:43:36;;;;;;;11.70;4.40;;;14.00;99.90;;;;;;5034564;28;20268;-77
2023/05/12 03:46:02;;;;;;;4.03;3.63;;;13.90;99.90;;;;;;5052343;28;20188;-77
2023/05/12 03:48:28;;;;;;;4.00;3.50;;;13.90;99.90;;;;;;5052380;28;20174;-77
2023/05/12 03:50:53;;;;;;;4.23;3.83;;;13.90;99.90;;;;;;5050561;28;20467;-77
2023/05/12 03:53:20;;;;;;;4.50;3.80;;;13.90;99.90;;;;;;5052657;28;20242;-77
2023/05/12 03:55:46;;;;;;;8.90;4.27;;;13.90;99.90;;;;;;5051758;28;20236;-77
2023/05/12 03:58:12;;;;;;;6.47;3.70;;;13.90;99.90;;;;;;5051915;28;20467;-77
2023/05/12 04:00:38;;;;;;;4.47;4.07;;;13.90;99.90;;;;;;5050464;28;20943;-77
2023/05/12 04:03:03;;;;;;;4.83;3.73;;;13.90;99.90;;;;;;5051461;28;20170;-76
2023/05/12 04:05:29;;;;;;;5.50;4.00;;;13.90;99.90;;;;;;5034055;28;20546;-77
2023/05/12 04:07:55;;;;;;;4.47;3.90;;;13.90;99.90;;;;;;5050581;28;20255;-77
2023/05/12 04:10:21;;;;;;;4.30;3.90;;;13.90;99.90;;;;;;5051552;28;20220;-77
2023/05/12 04:12:46;;;;;;;5.57;4.30;;;13.90;99.90;;;;;;5072522;22;20256;-73
2023/05/12 04:15:13;;;;;;;4.43;4.00;;;13.80;99.90;;;;;;5049538;28;20404;-73
2023/05/12 04:17:39;;;;;;;5.77;4.80;;;13.80;99.90;;;;;;5031563;28;20214;-73
2023/05/12 04:20:06;;;;;;;3.90;3.50;;;13.80;99.90;;;;;;5049740;28;20461;-73
2023/05/12 04:22:32;;;;;;;6.77;4.30;;;13.80;99.90;;;;;;5049066;28;20527;-73
2023/05/12 04:24:58;;;;;;;4.97;3.77;;;13.70;99.90;;;;;;5031575;28;20853;-73
2023/05/12 04:27:23;;;;;;;4.37;3.97;;;13.80;99.90;;;;;;5049322;28;20178;-73
2023/05/12 04:29:49;;;;;;;4.80;4.30;;;13.80;99.90;;;;;;5031454;28;20188;-73
2023/05/12 04:32:15;;;;;;;4.20;3.80;;;13.70;99.90;;;;;;5049304;28;20275;-73
2023/05/12 04:34:41;;;;;;;4.67;4.17;;;13.70;99.90;;;;;;5049087;28;20209;-73
2023/05/12 04:37:07;;;;;;;4.80;4.30;;;13.70;99.90;;;;;;5048886;28;20545;-73
2023/05/12 04:39:32;;;;;;;4.87;3.83;;;13.80;99.90;;;;;;5049188;28;20170;-73
2023/05/12 04:42:02;;;;;;;4.13;3.70;;;13.70;99.90;;;;;;5049034;28;20807;-73
2023/05/12 04:44:28;;;;;;;4.60;3.60;;;13.70;99.90;;;;;;5048973;28;20170;-73
2023/05/12 04:46:55;;;;;;;4.13;3.73;;;13.60;99.90;;;;;;5047697;28;20424;-73
2023/05/12 04:49:21;;;;;;;4.10;3.80;;;13.60;99.90;;;;;;5048979;28;20431;-73
2023/05/12 04:51:47;;;;;;;7.23;3.57;;;13.70;99.90;;;;;;5044307;28;20555;-73
2023/05/12 04:54:12;;;;;;;3.77;3.37;;;13.70;99.90;;;;;;5039567;28;20441;-73
2023/05/12 04:56:38;;;;;;;5.00;3.80;;;13.70;99.90;;;;;;5040475;28;20185;-73
2023/05/12 04:59:05;;;;;;;4.43;3.80;;;13.70;99.90;;;;;;5013865;28;20206;-73
2023/05/12 05:01:30;;;;;;;5.03;4.10;;;13.70;99.90;;;;;;5028644;28;20288;-73
2023/05/12 05:03:56;;;;;;;4.40;3.80;;;13.80;99.90;;;;;;5038622;28;20495;-73
2023/05/12 05:06:22;;;;;;;4.23;3.83;;;13.80;99.90;;;;;;5041477;28;20165;-73
2023/05/12 05:08:48;;;;;;;6.20;3.40;;;13.80;99.90;;;;;;5044995;28;20217;-73
2023/05/12 05:11:13;;;;;;;3.70;3.40;;;13.80;99.90;;;;;;5017240;28;20245;-73
2023/05/12 05:13:39;;;;;;;5.83;3.57;;;13.80;99.90;;;;;;5004716;28;20647;-72
2023/05/12 05:16:05;;;;;;;4.50;3.83;;;13.80;99.90;;;;;;5027691;28;20185;-72
2023/05/12 05:18:31;;;;;;;5.10;3.77;;;13.80;99.90;;;;;;5013917;28;20212;-72
2023/05/12 05:20:57;;;;;;;4.23;3.70;;;13.80;99.90;;;;;;5029736;28;20944;-73
2023/05/12 05:23:23;;;;;;;4.23;3.83;;;13.80;99.90;;;;;;5030515;28;20181;-73
2023/05/12 05:25:48;;;;;;;4.47;3.80;;;13.90;99.90;;;;;;5048608;28;20205;-73
2023/05/12 05:28:14;;;;;;;4.53;4.13;;;13.80;99.90;;;;;;5048543;28;20169;-73
2023/05/12 05:30:39;;;;;;;4.10;3.70;;;13.80;99.90;;;;;;5042384;28;20211;-73
2023/05/12 05:33:05;;;;;;;3.77;3.47;;;13.90;99.90;;;;;;5046583;28;20206;-73
2023/05/12 05:35:31;;;;;;;4.33;3.93;;;13.80;99.90;;;;;;5041176;28;20585;-73
2023/05/12 05:37:57;;;;;;;5.90;4.20;;;13.90;99.90;;;;;;5030316;28;20217;-73
2023/05/12 05:40:22;;;;;;;4.60;4.17;;;13.90;99.90;;;;;;5048420;28;20775;-73
2023/05/12 05:42:48;;;;;;;3.93;3.50;;;13.90;99.90;;;;;;5048155;28;20194;-73
2023/05/12 05:45:14;;;;;;;3.70;3.30;;;13.90;99.90;;;;;;5040734;28;20185;-73
2023/05/12 05:47:40;;;;;;;4.20;3.83;;;13.90;99.90;;;;;;5023589;28;20232;-73
2023/05/12 05:50:06;;;;;;;4.77;4.13;;;13.90;99.90;;;;;;5025822;28;21054;-73
2023/05/12 05:52:32;;;;;;;6.10;4.33;;;13.90;99.90;;;;;;5041865;28;20288;-73
2023/05/12 05:54:57;;;;;;;3.70;3.40;;;13.90;99.90;;;;;;5031053;28;20511;-73
2023/05/12 05:57:26;;;;;;;4.40;4.00;;;13.90;99.90;;;;;;5052268;28;20681;-73
2023/05/12 05:59:52;;;;;;;4.50;4.10;;;13.90;99.90;;;;;;5052462;28;20170;-73
2023/05/12 06:02:21;;;;;;;3.67;3.37;;;13.90;99.90;;;;;;5031040;28;20487;-73
2023/05/12 06:04:47;;;;;;;5.47;4.60;;;14.00;99.90;;;;;;5037452;28;20420;-73
2023/05/12 06:07:13;;;;;;;5.90;5.30;;;14.00;99.90;;;;;;5048435;28;20435;-73
2023/05/12 06:09:39;;;;;;;4.70;4.20;;;14.00;99.90;;;;;;5050174;28;20427;-73
2023/05/12 06:12:06;;;;;;;4.60;4.20;;;14.00;99.90;;;;;;5034214;28;20238;-73
2023/05/12 06:14:32;;;;;;;4.80;4.23;;;14.00;99.90;;;;;;5031957;28;20576;-73
2023/05/12 06:16:57;;;;;;;5.33;4.90;;;14.00;99.90;;;;;;5031821;28;20504;-73
2023/05/12 06:19:23;;;;;;;4.43;4.03;;;14.00;99.90;;;;;;5015971;28;20191;-73
2023/05/12 06:21:50;;;;;;;4.90;4.40;;;14.00;99.90;;;;;;5042853;28;20194;-73
2023/05/12 06:24:16;;;;;;;4.43;4.03;;;14.10;99.90;;;;;;5041949;28;20190;-73
2023/05/12 06:26:41;;;;;;;5.03;4.60;;;14.10;99.90;;;;;;5043750;28;20471;-73
2023/05/12 06:29:07;;;;;;;4.40;4.00;;;14.10;99.90;;;;;;5033326;28;20182;-73
2023/05/12 06:31:33;;;;;;;5.70;4.00;;;14.20;99.90;;;;;;5029637;28;20198;-73
2023/05/12 06:33:59;;;;;;;4.40;4.00;;;14.10;99.90;;;;;;5029785;28;20183;-73
2023/05/12 06:36:26;;;;;;;5.13;4.63;;;14.10;99.90;;;;;;5029286;28;20561;-73
2023/05/12 06:38:52;;;;;;;4.47;4.10;;;14.10;99.90;;;;;;5029759;28;20449;-73
2023/05/12 06:41:18;;;;;;;4.30;4.00;;;14.20;99.90;;;;;;5029543;28;20437;-73
2023/05/12 06:43:44;;;;;;;3.97;3.67;;;14.20;99.90;;;;;;5029492;28;20413;-73
2023/05/12 06:46:10;;;;;;;6.23;4.27;;;14.20;99.90;;;;;;5030879;28;20171;-73
2023/05/12 06:48:36;;;;;;;5.67;4.20;;;14.20;99.90;;;;;;5031012;28;20405;-73
2023/05/12 06:51:02;;;;;;;4.87;4.37;;;14.20;99.90;;;;;;5031151;28;20191;-73
2023/05/12 06:53:28;;;;;;;4.97;4.07;;;14.20;99.90;;;;;;5031296;28;20658;-73
2023/05/12 06:55:54;;;;;;;4.40;4.00;;;14.20;99.90;;;;;;5031470;28;20417;-73
2023/05/12 06:58:20;;;;;;;7.47;4.13;;;14.20;99.90;;;;;;5030960;28;20461;-73
2023/05/12 07:00:46;;;;;;;4.63;4.03;;;14.20;99.90;;;;;;5031082;28;20171;-73
2023/05/12 07:03:12;;;;;;;4.03;3.73;;;14.20;99.90;;;;;;5030692;28;20444;-73
2023/05/12 07:05:38;;;;;;;4.50;3.83;;;14.20;99.90;;;;;;5031271;28;20423;-73
2023/05/12 07:08:04;;;;;;;4.50;3.53;;;14.20;99.90;;;;;;5031038;28;20174;-73
2023/05/12 07:10:31;;;;;;;4.13;3.83;;;14.20;99.90;;;;;;5044969;28;20424;-73
2023/05/12 07:12:57;;;;;;;4.73;4.33;;;14.20;99.90;;;;;;5050969;28;20545;-73
2023/05/12 07:15:23;;;;;;;4.27;3.87;;;14.20;99.90;;;;;;5050953;28;20464;-73
2023/05/12 07:17:49;;;;;;;4.23;3.83;;;14.20;99.90;;;;;;5050476;28;20210;-73
2023/05/12 07:20:14;;;;;;;4.83;4.40;;;14.20;99.90;;;;;;5050797;28;20181;-73
2023/05/12 07:22:40;;;;;;;4.87;4.47;;;14.20;99.90;;;;;;5050739;28;20277;-73
2023/05/12 07:25:06;;;;;;;6.17;4.30;;;14.20;99.90;;;;;;5050703;28;20324;-73
2023/05/12 07:27:32;;;;;;;4.70;4.30;;;14.20;99.90;;;;;;5050583;28;20177;-73
2023/05/12 07:29:58;;;;;;;4.27;3.83;;;14.10;99.90;;;;;;5050524;28;20417;-73
2023/05/12 07:32:24;;;;;;;5.93;4.00;;;14.20;99.90;;;;;;5050548;28;20569;-73
2023/05/12 07:34:50;;;;;;;4.67;4.17;;;14.10;99.90;;;;;;5050261;28;20611;-73
2023/05/12 07:37:15;;;;;;;5.57;4.60;;;14.20;99.90;;;;;;5032463;28;20456;-73
2023/05/12 07:39:41;;;;;;;5.37;4.87;;;14.20;99.90;;;;;;5032536;28;20657;-73
2023/05/12 07:42:07;;;;;;;5.07;4.07;;;14.20;99.90;;;;;;5050435;28;20197;-73
2023/05/12 07:44:35;;;;;;;5.53;4.40;;;14.20;99.90;;;;;;5050015;28;20205;-73
2023/05/12 07:47:00;;;;;;;6.23;4.87;;;14.20;99.90;;;;;;5015419;28;20412;-73
2023/05/12 07:49:26;;;;;;;5.57;5.00;;;14.20;99.90;;;;;;5049897;28;21103;-73
2023/05/12 07:51:51;;;;;;;5.03;4.53;;;14.30;99.90;;;;;;5050269;28;20206;-73
2023/05/12 07:54:17;;;;;;;5.10;4.60;;;14.30;99.90;;;;;;5049892;28;20209;-73
2023/05/12 07:56:43;;;;;;;6.30;5.13;;;14.30;99.90;;;;;;5050404;28;20260;-73
2023/05/12 07:59:09;;;;;;;5.50;5.00;;;14.30;99.90;;;;;;5032252;28;20259;-73
2023/05/12 08:01:35;;;;;;;5.70;4.70;;;14.30;99.90;;;;;;5049809;28;20692;-73
2023/05/12 08:04:01;;;;;;;5.30;4.73;;;14.30;99.90;;;;;;5032311;28;20444;-73
2023/05/12 08:06:26;;;;;;;5.70;5.20;;;14.30;99.90;;;;;;5030138;28;20232;-73
2023/05/12 08:08:52;;;;;;;5.90;5.10;;;14.30;99.90;;;;;;5030429;28;20185;-73
2023/05/12 08:11:18;;;;;;;6.03;4.97;;;14.30;99.90;;;;;;5031553;28;20218;-73
2023/05/12 08:13:43;;;;;;;5.30;4.80;;;14.40;99.90;;;;;;5049328;28;20189;-73
2023/05/12 08:16:09;;;;;;;5.97;5.47;;;14.40;99.90;;;;;;5049681;28;20204;-73
2023/05/12 08:18:34;;;;;;;5.53;4.83;;;14.40;99.90;;;;;;5031447;28;20645;-73
2023/05/12 08:21:00;;;;;;;8.43;4.97;;;14.50;99.90;;;;;;5049572;28;20189;-73
2023/05/12 08:23:26;;;;;;;5.10;4.60;;;14.50;99.90;;;;;;5049307;28;20201;-73
2023/05/12 08:25:51;;;;;;;6.80;5.60;;;14.50;99.90;;;;;;5049706;28;20181;-73
2023/05/12 08:28:17;;;;;;;7.03;5.03;;;14.60;99.90;;;;;;5049404;28;20212;-73
2023/05/12 08:30:43;;;;;;;6.27;5.30;;;14.60;99.90;;;;;;5031531;28;20710;-73
2023/05/12 08:33:10;;;;;;;6.20;5.27;;;14.70;99.90;;;;;;5048991;28;20211;-73
2023/05/12 08:35:36;;;;;;;5.57;5.10;;;14.70;99.90;;;;;;5048913;28;20423;-73
2023/05/12 08:38:02;;;;;;;5.73;5.00;;;14.70;99.90;;;;;;5049148;28;20455;-73
2023/05/12 08:40:30;;;;;;;5.30;4.30;;;14.80;99.90;;;;;;5049252;28;20178;-73
2023/05/12 08:43:14;;;;;;;5.73;4.60;;;14.80;99.90;;;;;;5030956;28;20201;-73
2023/05/12 08:45:40;;;;;;;5.90;4.60;;;14.90;99.90;;;;;;5031496;28;20520;-73
2023/05/12 08:48:09;;;;;;;5.50;5.00;;;14.90;99.90;;;;;;5048422;28;20960;-73
2023/05/12 08:50:36;;;;;;;4.67;4.27;;;14.90;99.90;;;;;;5049012;28;20843;-73
2023/05/12 08:53:08;;;;;;;5.43;4.93;;;15.00;99.90;;;;;;5048714;28;20432;-73
2023/05/12 08:55:34;;;;;;;5.97;5.37;;;15.00;99.90;;;;;;5049024;28;20968;-73
2023/05/12 08:58:02;;;;;;;5.20;4.70;;;15.00;99.90;;;;;;5030679;28;20475;-73
2023/05/12 09:00:28;;;;;;;5.10;4.60;;;15.10;99.90;;;;;;5048755;28;20312;-73
2023/05/12 09:02:55;;;;;;;6.30;4.80;;;15.20;99.90;;;;;;5040713;28;20512;-73
2023/05/12 09:05:21;;;;;;;5.57;5.10;;;15.20;99.90;;;;;;5028731;28;20409;-73
2023/05/12 09:07:49;;;;;;;5.20;4.70;;;15.20;99.90;;;;;;5028739;28;20413;-73
2023/05/12 09:10:17;;;;;;;5.70;4.80;;;15.30;99.90;;;;;;5040510;28;20420;-73
2023/05/12 09:12:46;;;;;;;8.60;4.40;;;15.30;99.90;;;;;;5048502;28;20456;-73
2023/05/12 09:15:18;;;;;;;6.13;4.57;;;15.40;99.90;;;;;;5048611;28;20413;-73
2023/05/12 09:17:43;;;;;;;6.43;4.60;;;15.50;99.90;;;;;;5048348;28;20466;-73
2023/05/12 09:20:11;;;;;;;5.40;4.90;;;15.60;99.90;;;;;;5048676;28;20412;-73
2023/05/12 09:22:38;;;;;;;7.40;5.30;;;15.60;99.90;;;;;;5048538;28;20428;-73
2023/05/12 09:25:20;;;;;;;4.77;4.37;;;15.70;99.90;;;;;;5047483;28;20419;-73
2023/05/12 09:27:48;;;;;;;5.70;4.73;;;15.80;99.90;;;;;;5048386;28;20420;-73
2023/05/12 09:30:14;;;;;;;4.80;4.40;;;15.80;99.90;;;;;;5048347;28;20542;-73
2023/05/12 09:32:41;;;;;;;5.10;4.27;;;15.80;99.90;;;;;;5048418;28;20554;-73
2023/05/12 09:35:10;;;;;;;7.40;4.37;;;15.90;99.90;;;;;;5047274;28;20960;-73
2023/05/12 09:37:36;;;;;;;4.90;4.40;;;15.90;99.90;;;;;;5048275;28;20459;-73
2023/05/12 09:40:04;;;;;;;4.23;3.93;;;15.90;99.90;;;;;;5048330;28;20416;-73
2023/05/12 09:42:31;;;;;;;4.90;3.83;;;16.00;99.90;;;;;;5048409;28;20432;-73
2023/05/12 09:45:02;;;;;;;4.53;3.80;;;16.00;99.90;;;;;;5047990;28;20939;-73
2023/05/12 09:47:34;;;;;;;5.10;4.60;;;16.10;99.90;;;;;;5048523;28;20936;-73
2023/05/12 09:50:04;;;;;;;4.60;3.83;;;16.00;99.90;;;;;;5030096;28;20423;-73
2023/05/12 09:52:34;;;;;;;4.60;4.20;;;16.10;99.90;;;;;;5048323;28;20436;-73
2023/05/12 09:55:18;;;;;;;4.57;3.57;;;16.10;99.90;;;;;;5047881;28;20420;-73
2023/05/12 09:57:45;;;;;;;4.90;3.40;;;16.20;99.90;;;;;;5048102;28;20613;-73
2023/05/12 10:00:13;;;;;;;4.10;3.70;;;16.30;99.90;;;;;;5048011;28;20412;-73
2023/05/12 10:02:43;;;;;;;3.80;3.50;;;16.30;99.90;;;;;;5038722;28;20453;-73
2023/05/12 10:05:15;;;;;;;7.50;4.00;;;16.40;99.90;;;;;;5041226;28;20527;-73
2023/05/12 10:07:45;;;;;;;3.70;3.40;;;16.50;99.90;;;;;;5028006;28;20421;-73
2023/05/12 10:10:15;;;;;;;4.33;3.93;;;16.50;99.90;;;;;;5038646;28;20484;-73
2023/05/12 10:12:41;;;;;;;5.53;4.30;;;16.50;99.90;;;;;;5048843;28;20464;-74
2023/05/12 10:15:09;;;;;;;4.30;3.90;;;16.50;99.90;;;;;;5047968;28;20423;-74
2023/05/12 10:17:36;;;;;;;4.60;4.20;;;16.60;99.90;;;;;;5029610;28;20599;-74
2023/05/12 10:20:05;;;;;;;4.87;4.13;;;16.60;99.90;;;;;;5047163;28;20427;-74
2023/05/12 10:22:33;;;;;;;4.70;4.30;;;16.60;99.90;;;;;;5029626;28;20509;-74
2023/05/12 10:25:03;;;;;;;4.70;4.30;;;16.60;99.90;;;;;;5047339;28;20527;-74
2023/05/12 10:27:32;;;;;;;4.60;4.23;;;16.60;99.90;;;;;;5047371;28;20427;-74
2023/05/12 10:30:00;;;;;;;7.30;4.30;;;16.70;99.90;;;;;;5047295;28;20506;-74
2023/05/12 10:32:26;;;;;;;4.63;4.23;;;16.70;99.90;;;;;;5047255;28;20582;-74
2023/05/12 10:34:52;;;;;;;7.97;4.43;;;16.70;99.90;;;;;;5042959;28;20425;-74
2023/05/12 10:37:21;;;;;;;4.50;4.10;;;16.80;99.90;;;;;;5030950;28;20455;-74
2023/05/12 10:39:48;;;;;;;4.37;3.93;;;16.80;99.90;;;;;;5030900;28;20417;-74
2023/05/12 10:42:24;;;;;;;4.80;4.40;;;16.70;99.90;;;;;;5031017;28;20433;-74
2023/05/12 10:44:55;;;;;;;6.50;4.60;;;16.70;99.90;;;;;;5031399;28;20409;-74
2023/05/12 10:47:25;;;;;;;5.90;4.90;;;16.70;99.90;;;;;;5031389;28;20424;-74
2023/05/12 10:49:58;;;;;;;6.57;4.67;;;16.70;99.90;;;;;;5013642;28;20832;-74
2023/05/12 10:52:24;;;;;;;6.87;5.10;;;16.70;99.90;;;;;;5031384;28;20444;-74
2023/05/12 10:55:02;;;;;;;5.57;5.00;;;16.80;99.90;;;;;;5031156;28;20417;-74
2023/05/12 10:57:29;;;;;;;5.37;4.93;;;16.70;99.90;;;;;;5031251;28;20449;-74
2023/05/12 10:59:59;;;;;;;5.03;4.60;;;16.80;99.90;;;;;;5031308;28;20933;-74
2023/05/12 11:02:29;;;;;;;5.17;4.67;;;16.80;99.90;;;;;;5031129;28;20429;-74
2023/05/12 11:05:00;;;;;;;5.60;5.10;;;16.80;99.90;;;;;;5013317;28;20425;-74
2023/05/12 11:07:31;;;;;;;5.33;4.50;;;16.80;99.90;;;;;;5030935;28;20417;-74
2023/05/12 11:10:02;;;;;;;8.67;4.90;;;16.90;99.90;;;;;;5042176;28;20416;-74
2023/05/12 11:12:36;;;;;;;6.43;5.40;;;17.00;99.90;;;;;;5050765;28;20456;-74
2023/05/12 11:15:04;;;;;;;4.90;4.40;;;17.10;99.90;;;;;;5032959;28;20425;-74
2023/05/12 11:17:29;;;;;;;7.63;5.17;;;17.20;99.90;;;;;;5050634;28;20459;-74
2023/05/12 11:19:55;;;;;;;5.10;4.60;;;17.20;99.90;;;;;;5050779;28;20428;-74
2023/05/12 11:22:22;;;;;;;8.80;4.80;;;17.30;99.90;;;;;;5050813;28;20204;-74
2023/05/12 11:24:49;;;;;;;5.60;5.10;;;17.30;99.90;;;;;;5050633;28;20431;-74
2023/05/12 11:27:20;;;;;;;5.30;4.80;;;17.30;99.90;;;;;;5050465;28;20412;-74
2023/05/12 11:29:56;;;;;;;4.80;4.40;;;17.40;99.90;;;;;;5050800;28;20923;-74
2023/05/12 11:32:21;;;;;;;5.60;5.10;;;17.50;99.90;;;;;;5050428;28;20502;-74
2023/05/12 11:34:47;;;;;;;5.13;4.63;;;17.50;99.90;;;;;;5046024;28;20436;-74
2023/05/12 11:37:13;;;;;;;5.10;4.67;;;17.50;99.90;;;;;;5040119;28;20193;-74
2023/05/12 11:39:40;;;;;;;5.37;4.87;;;17.60;99.90;;;;;;5044307;28;20265;-74
2023/05/12 11:42:08;;;;;;;5.17;4.73;;;17.60;99.90;;;;;;5044613;28;20688;-74
2023/05/12 11:44:34;;;;;;;6.60;5.23;;;17.70;99.90;;;;;;5022297;28;20416;-74
2023/05/12 11:47:14;;;;;;;6.40;5.90;;;17.70;99.90;;;;;;5039258;28;20421;-74
2023/05/12 11:49:54;;;;;;;5.90;5.40;;;17.80;99.90;;;;;;5040259;28;20908;-74
2023/05/12 11:52:21;;;;;;;5.20;4.70;;;17.80;99.90;;;;;;5039943;28;20483;-74
2023/05/12 11:54:54;;;;;;;5.57;5.07;;;17.80;99.90;;;;;;5020747;28;20895;-74
2023/05/12 11:57:35;;;;;;;5.37;4.97;;;17.90;99.90;;;;;;5042126;28;20429;-74
2023/05/12 12:00:03;;;;;;;5.07;4.57;;;17.90;99.90;;;;;;5027912;28;20465;-74
2023/05/12 12:02:29;;;;;;;5.80;5.30;;;18.00;99.90;;;;;;5041731;28;20451;-74
2023/05/12 12:04:55;;;;;;;5.33;4.83;;;18.00;99.90;;;;;;5023124;28;20434;-74
2023/05/12 12:07:32;;;;;;;7.40;4.70;;;18.00;99.90;;;;;;5041265;28;20420;-74
2023/05/12 12:09:58;;;;;;;7.50;4.60;;;18.00;99.90;;;;;;5038441;28;20413;-74
2023/05/12 12:12:24;;;;;;;8.20;5.10;;;17.90;99.90;;;;;;5029716;28;20454;-74
2023/05/12 12:14:50;;;;;;;5.50;4.50;;;18.00;99.90;;;;;;5012033;28;20514;-74
2023/05/12 12:17:16;;;;;;;5.60;5.00;;;17.90;99.90;;;;;;5017247;28;20194;-74
2023/05/12 12:19:42;;;;;;;5.37;4.97;;;17.90;99.90;;;;;;5038144;28;20446;-74
2023/05/12 12:22:07;;;;;;;5.73;4.63;;;17.90;99.90;;;;;;5045284;28;20713;-74
2023/05/12 12:24:33;;;;;;;6.20;4.97;;;17.90;99.90;;;;;;5040894;28;20578;-74
2023/05/12 12:26:59;;;;;;;5.63;5.10;;;17.90;99.90;;;;;;5049387;28;20170;-74
2023/05/12 12:29:27;;;;;;;5.20;4.80;;;17.90;99.90;;;;;;5031349;28;20188;-74
2023/05/12 12:31:52;;;;;;;6.70;4.30;;;18.00;99.90;;;;;;5049129;28;20200;-74
2023/05/12 12:34:18;;;;;;;6.43;4.57;;;18.00;99.90;;;;;;5040806;28;20515;-74
2023/05/12 12:36:45;;;;;;;5.30;4.80;;;18.00;99.90;;;;;;5038064;28;20182;-74
2023/05/12 12:39:12;;;;;;;4.50;3.60;;;18.00;99.90;;;;;;5026885;28;20217;-74
2023/05/12 12:41:37;;;;;;;4.90;4.47;;;18.00;99.90;;;;;;5019131;28;20498;-74
2023/05/12 12:44:03;;;;;;;4.40;4.00;;;18.00;99.90;;;;;;5036393;28;20413;-74